sensor_id;sensor_type;location;lat;lon;timestamp;pressure;altitude;pressure_sealevel;temperature;humidity
56414;BME280;42318;48.452;19.526;2023-05-19T00:07:30;98915.53;;;20.39;52.74
56414;BME280;42318;48.452;19.526;2023-05-19T00:15:02;98921.34;;;20.43;52.60
56414;BME280;42318;48.452;19.526;2023-05-19T00:22:33;98916.41;;;20.40;52.69
56414;BME280;42318;48.452;19.526;2023-05-19T00:30:05;98914.38;;;20.35;52.88
56414;BME280;42318;48.452;19.526;2023-05-19T00:37:35;98910.25;;;20.32;53.07
56414;BME280;42318;48.452;19.526;2023-05-19T00:45:07;98912.88;;;20.27;52.86
56414;BME280;42318;48.452;19.526;2023-05-19T00:52:38;98900.09;;;20.28;52.79
56414;BME280;42318;48.452;19.526;2023-05-19T01:00:09;98899.28;;;20.27;52.91
56414;BME280;42318;48.452;19.526;2023-05-19T01:07:41;98896.56;;;20.27;52.83
56414;BME280;42318;48.452;19.526;2023-05-19T01:15:12;98898.78;;;20.30;53.05
56414;BME280;42318;48.452;19.526;2023-05-19T01:30:36;98885.25;;;20.35;52.61
56414;BME280;42318;48.452;19.526;2023-05-19T01:38:08;98876.50;;;20.33;52.80
56414;BME280;42318;48.452;19.526;2023-05-19T01:45:39;98875.44;;;20.34;52.95
56414;BME280;42318;48.452;19.526;2023-05-19T01:53:10;98883.03;;;20.32;52.94
56414;BME280;42318;48.452;19.526;2023-05-19T02:00:52;98867.19;;;20.29;52.96
56414;BME280;42318;48.452;19.526;2023-05-19T02:08:29;98863.09;;;20.27;53.13
56414;BME280;42318;48.452;19.526;2023-05-19T02:16:04;98859.78;;;20.25;53.00
56414;BME280;42318;48.452;19.526;2023-05-19T02:23:35;98863.81;;;20.22;53.71
56414;BME280;42318;48.452;19.526;2023-05-19T02:31:06;98850.72;;;20.19;53.12
56414;BME280;42318;48.452;19.526;2023-05-19T02:38:38;98846.59;;;20.17;53.22
56414;BME280;42318;48.452;19.526;2023-05-19T02:46:09;98838.69;;;20.15;53.34
56414;BME280;42318;48.452;19.526;2023-05-19T02:53:40;98843.81;;;20.12;53.08
56414;BME280;42318;48.452;19.526;2023-05-19T03:01:11;98851.72;;;20.13;53.37
56414;BME280;42318;48.452;19.526;2023-05-19T03:08:42;98848.16;;;20.13;53.26
56414;BME280;42318;48.452;19.526;2023-05-19T03:16:13;98859.13;;;20.18;53.04
56414;BME280;42318;48.452;19.526;2023-05-19T03:23:43;98866.22;;;20.19;53.03
56414;BME280;42318;48.452;19.526;2023-05-19T03:31:14;98865.16;;;20.20;53.04
56414;BME280;42318;48.452;19.526;2023-05-19T03:38:45;98872.47;;;20.19;53.17
56414;BME280;42318;48.452;19.526;2023-05-19T03:46:16;98861.34;;;20.21;53.30
56414;BME280;42318;48.452;19.526;2023-05-19T03:53:47;98863.25;;;20.20;52.83
56414;BME280;42318;48.452;19.526;2023-05-19T04:01:18;98869.34;;;20.27;52.89
56414;BME280;42318;48.452;19.526;2023-05-19T04:08:49;98874.28;;;20.30;52.92
56414;BME280;42318;48.452;19.526;2023-05-19T04:16:19;98881.13;;;20.33;52.96
56414;BME280;42318;48.452;19.526;2023-05-19T04:23:50;98885.25;;;20.35;52.51
56414;BME280;42318;48.452;19.526;2023-05-19T04:31:21;98893.09;;;20.32;52.88
56414;BME280;42318;48.452;19.526;2023-05-19T04:38:52;98887.16;;;20.35;52.71
56414;BME280;42318;48.452;19.526;2023-05-19T04:46:25;98895.06;;;20.36;52.47
56414;BME280;42318;48.452;19.526;2023-05-19T04:53:56;98889.63;;;20.36;52.76
56414;BME280;42318;48.452;19.526;2023-05-19T05:01:27;98893.91;;;20.32;52.78
56414;BME280;42318;48.452;19.526;2023-05-19T05:09:00;98884.59;;;20.28;52.97
56414;BME280;42318;48.452;19.526;2023-05-19T05:16:33;98893.00;;;20.27;52.96
56414;BME280;42318;48.452;19.526;2023-05-19T05:24:05;98898.94;;;20.24;53.02
56414;BME280;42318;48.452;19.526;2023-05-19T05:31:35;98917.16;;;20.23;52.99
56414;BME280;42318;48.452;19.526;2023-05-19T05:39:07;98911.41;;;20.20;53.00
56414;BME280;42318;48.452;19.526;2023-05-19T05:46:38;98905.13;;;20.19;53.26
56414;BME280;42318;48.452;19.526;2023-05-19T05:54:11;98910.56;;;20.19;53.34
56414;BME280;42318;48.452;19.526;2023-05-19T06:01:42;98904.88;;;20.21;52.94
56414;BME280;42318;48.452;19.526;2023-05-19T06:09:13;98917.50;;;20.27;53.13
56414;BME280;42318;48.452;19.526;2023-05-19T06:16:44;98919.47;;;20.31;53.18
56414;BME280;42318;48.452;19.526;2023-05-19T06:24:15;98935.31;;;20.34;53.20
56414;BME280;42318;48.452;19.526;2023-05-19T06:31:45;98943.63;;;20.40;53.18
56414;BME280;42318;48.452;19.526;2023-05-19T06:39:16;98937.44;;;20.44;53.16
56414;BME280;42318;48.452;19.526;2023-05-19T06:46:47;98945.94;;;20.48;53.11
56414;BME280;42318;48.452;19.526;2023-05-19T06:54:18;98955.75;;;20.49;53.16
56414;BME280;42318;48.452;19.526;2023-05-19T07:01:48;98956.00;;;20.47;53.06
56414;BME280;42318;48.452;19.526;2023-05-19T07:09:19;98946.75;;;20.48;52.99
56414;BME280;42318;48.452;19.526;2023-05-19T07:16:50;98949.72;;;20.47;53.21
56414;BME280;42318;48.452;19.526;2023-05-19T07:24:21;98955.16;;;20.47;53.43
56414;BME280;42318;48.452;19.526;2023-05-19T07:31:52;98950.22;;;20.44;53.61
56414;BME280;42318;48.452;19.526;2023-05-19T07:39:27;98951.28;;;20.43;53.61
56414;BME280;42318;48.452;19.526;2023-05-19T07:46:59;98943.94;;;20.43;54.22
56414;BME280;42318;48.452;19.526;2023-05-19T07:54:30;98950.94;;;20.39;54.43
56414;BME280;42318;48.452;19.526;2023-05-19T08:02:01;98950.78;;;20.46;54.99
56414;BME280;42318;48.452;19.526;2023-05-19T08:09:32;98943.44;;;20.46;54.91
56414;BME280;42318;48.452;19.526;2023-05-19T08:17:03;98944.03;;;20.48;54.68
56414;BME280;42318;48.452;19.526;2023-05-19T08:24:34;98945.94;;;20.48;54.75
56414;BME280;42318;48.452;19.526;2023-05-19T08:32:05;98939.66;;;20.47;54.46
56414;BME280;42318;48.452;19.526;2023-05-19T08:39:36;98941.81;;;20.45;54.19
56414;BME280;42318;48.452;19.526;2023-05-19T08:47:07;98938.84;;;20.47;54.34
56414;BME280;42318;48.452;19.526;2023-05-19T09:02:50;98928.53;;;20.49;54.03
56414;BME280;42318;48.452;19.526;2023-05-19T09:10:22;98924.72;;;20.50;53.76
56414;BME280;42318;48.452;19.526;2023-05-19T09:18:10;98922.00;;;20.50;53.71
56414;BME280;42318;48.452;19.526;2023-05-19T09:25:52;98920.94;;;20.51;53.72
56414;BME280;42318;48.452;19.526;2023-05-19T09:33:23;98924.47;;;20.51;53.55
56414;BME280;42318;48.452;19.526;2023-05-19T09:40:57;98919.84;;;20.52;53.86
56414;BME280;42318;48.452;19.526;2023-05-19T09:48:28;98901.06;;;20.50;53.61
56414;BME280;42318;48.452;19.526;2023-05-19T09:56:00;98900.81;;;20.52;53.93
56414;BME280;42318;48.452;19.526;2023-05-19T10:03:32;98897.25;;;20.51;53.67
56414;BME280;42318;48.452;19.526;2023-05-19T10:11:04;98898.31;;;20.50;53.70
56414;BME280;42318;48.452;19.526;2023-05-19T10:18:35;98888.44;;;20.44;53.67
56414;BME280;42318;48.452;19.526;2023-05-19T10:26:06;98885.53;;;20.51;53.44
56414;BME280;42318;48.452;19.526;2023-05-19T10:49:34;98885.03;;;20.54;55.02
56414;BME280;42318;48.452;19.526;2023-05-19T10:57:06;98875.72;;;20.50;54.50
56414;BME280;42318;48.452;19.526;2023-05-19T11:04:47;98874.16;;;20.54;54.57
56414;BME280;42318;48.452;19.526;2023-05-19T11:12:21;98874.16;;;20.54;54.50
56414;BME280;42318;48.452;19.526;2023-05-19T11:19:55;98866.56;;;20.56;54.65
56414;BME280;42318;48.452;19.526;2023-05-19T11:27:28;98869.53;;;20.54;54.74
56414;BME280;42318;48.452;19.526;2023-05-19T11:35:03;98869.34;;;20.61;54.68
56414;BME280;42318;48.452;19.526;2023-05-19T11:42:35;98867.44;;;20.61;54.94
56414;BME280;42318;48.452;19.526;2023-05-19T11:50:06;98862.59;;;20.63;54.92
56414;BME280;42318;48.452;19.526;2023-05-19T11:57:40;98859.59;;;20.65;54.95
56414;BME280;42318;48.452;19.526;2023-05-19T12:05:22;98854.97;;;20.65;55.30
56414;BME280;42318;48.452;19.526;2023-05-19T12:12:53;98855.81;;;20.66;55.27
56414;BME280;42318;48.452;19.526;2023-05-19T12:20:25;98851.44;;;20.65;55.07
56414;BME280;42318;48.452;19.526;2023-05-19T12:28:00;98835.94;;;20.65;55.13
56414;BME280;42318;48.452;19.526;2023-05-19T12:35:36;98826.63;;;20.61;55.02
56414;BME280;42318;48.452;19.526;2023-05-19T12:43:07;98818.19;;;20.63;55.22
56414;BME280;42318;48.452;19.526;2023-05-19T12:50:39;98819.84;;;20.64;55.06
56414;BME280;42318;48.452;19.526;2023-05-19T12:58:11;98818.78;;;20.65;54.98
56414;BME280;42318;48.452;19.526;2023-05-19T13:05:43;98803.50;;;20.64;54.93
56414;BME280;42318;48.452;19.526;2023-05-19T13:13:16;98808.94;;;20.64;54.88
56414;BME280;42318;48.452;19.526;2023-05-19T13:20:47;98810.28;;;20.61;54.94
56414;BME280;42318;48.452;19.526;2023-05-19T13:28:22;98814.91;;;20.61;55.01
56414;BME280;42318;48.452;19.526;2023-05-19T13:35:53;98807.00;;;20.59;54.79
56414;BME280;42318;48.452;19.526;2023-05-19T13:43:23;98807.81;;;20.60;54.68
56414;BME280;42318;48.452;19.526;2023-05-19T13:50:54;98809.47;;;20.61;54.87
56414;BME280;42318;48.452;19.526;2023-05-19T13:58:25;98801.59;;;20.64;55.25
56414;BME280;42318;48.452;19.526;2023-05-19T14:05:56;98799.19;;;20.68;54.91
56414;BME280;42318;48.452;19.526;2023-05-19T14:13:27;98797.88;;;20.70;55.03
56414;BME280;42318;48.452;19.526;2023-05-19T14:20:57;98801.66;;;20.69;54.69
56414;BME280;42318;48.452;19.526;2023-05-19T14:28:28;98791.28;;;20.66;54.80
56414;BME280;42318;48.452;19.526;2023-05-19T14:35:59;98788.31;;;20.68;54.72
56414;BME280;42318;48.452;19.526;2023-05-19T14:43:30;98791.03;;;20.68;55.06
56414;BME280;42318;48.452;19.526;2023-05-19T14:51:01;98789.63;;;20.65;54.64
56414;BME280;42318;48.452;19.526;2023-05-19T14:58:31;98781.47;;;20.65;54.68
56414;BME280;42318;48.452;19.526;2023-05-19T15:06:07;98776.84;;;20.66;54.86
56414;BME280;42318;48.452;19.526;2023-05-19T15:13:38;98791.28;;;20.66;54.84
56414;BME280;42318;48.452;19.526;2023-05-19T15:21:09;98783.38;;;20.65;54.58
56414;BME280;42318;48.452;19.526;2023-05-19T15:28:40;98777.94;;;20.65;54.66
56414;BME280;42318;48.452;19.526;2023-05-19T15:36:10;98780.91;;;20.63;54.64
56414;BME280;42318;48.452;19.526;2023-05-19T15:43:45;98775.72;;;20.62;54.47
56414;BME280;42318;48.452;19.526;2023-05-19T15:51:16;98771.34;;;20.61;54.41
56414;BME280;42318;48.452;19.526;2023-05-19T15:58:47;98765.91;;;20.61;54.31
56414;BME280;42318;48.452;19.526;2023-05-19T16:06:18;98769.94;;;20.58;54.71
56414;BME280;42318;48.452;19.526;2023-05-19T16:13:49;98773.75;;;20.57;54.61
56414;BME280;42318;48.452;19.526;2023-05-19T16:21:19;98771.84;;;20.58;54.72
56414;BME280;42318;48.452;19.526;2023-05-19T16:28:51;98766.09;;;20.54;54.42
56414;BME280;42318;48.452;19.526;2023-05-19T16:36:22;98764.75;;;20.57;54.62
56414;BME280;42318;48.452;19.526;2023-05-19T16:43:53;98771.28;;;20.56;54.52
56414;BME280;42318;48.452;19.526;2023-05-19T16:51:23;98766.91;;;20.55;54.58
56414;BME280;42318;48.452;19.526;2023-05-19T16:58:54;98762.47;;;20.49;54.64
56414;BME280;42318;48.452;19.526;2023-05-19T17:06:25;98772.03;;;20.51;54.56
56414;BME280;42318;48.452;19.526;2023-05-19T17:13:56;98770.91;;;20.47;54.80
56414;BME280;42318;48.452;19.526;2023-05-19T17:21:26;98784.00;;;20.50;54.42
56414;BME280;42318;48.452;19.526;2023-05-19T17:28:58;98789.69;;;20.49;54.39
56414;BME280;42318;48.452;19.526;2023-05-19T17:36:28;98791.34;;;20.50;54.55
56414;BME280;42318;48.452;19.526;2023-05-19T17:43:59;98801.41;;;20.49;54.63
56414;BME280;42318;48.452;19.526;2023-05-19T17:51:31;98793.50;;;20.48;54.43
56414;BME280;42318;48.452;19.526;2023-05-19T17:59:02;98804.88;;;20.45;54.34
56414;BME280;42318;48.452;19.526;2023-05-19T18:06:35;98799.69;;;20.43;54.60
56414;BME280;42318;48.452;19.526;2023-05-19T18:14:06;98824.19;;;20.43;54.32
56414;BME280;42318;48.452;19.526;2023-05-19T18:21:37;98824.69;;;20.40;54.63
56414;BME280;42318;48.452;19.526;2023-05-19T18:29:08;98832.59;;;20.42;54.51
56414;BME280;42318;48.452;19.526;2023-05-19T18:36:40;98839.13;;;20.41;54.49
56414;BME280;42318;48.452;19.526;2023-05-19T18:44:11;98850.22;;;20.39;54.41
56414;BME280;42318;48.452;19.526;2023-05-19T18:51:42;98848.38;;;20.40;54.60
56414;BME280;42318;48.452;19.526;2023-05-19T18:59:13;98854.03;;;20.38;54.42
56414;BME280;42318;48.452;19.526;2023-05-19T19:06:44;98850.44;;;20.37;54.62
56414;BME280;42318;48.452;19.526;2023-05-19T19:14:14;98864.91;;;20.38;54.32
56414;BME280;42318;48.452;19.526;2023-05-19T19:21:45;98864.31;;;20.36;54.59
56414;BME280;42318;48.452;19.526;2023-05-19T19:29:16;98865.38;;;20.35;54.64
56414;BME280;42318;48.452;19.526;2023-05-19T19:36:47;98869.16;;;20.34;54.42
56414;BME280;42318;48.452;19.526;2023-05-19T19:44:19;98869.41;;;20.32;54.45
56414;BME280;42318;48.452;19.526;2023-05-19T19:51:52;98869.66;;;20.31;54.45
56414;BME280;42318;48.452;19.526;2023-05-19T19:59:23;98877.00;;;20.30;54.43
56414;BME280;42318;48.452;19.526;2023-05-19T20:06:54;98875.13;;;20.31;54.49
56414;BME280;42318;48.452;19.526;2023-05-19T20:14:25;98879.72;;;20.30;54.71
56414;BME280;42318;48.452;19.526;2023-05-19T20:21:55;98889.78;;;20.30;54.28
56414;BME280;42318;48.452;19.526;2023-05-19T20:29:26;98887.31;;;20.28;54.63
56414;BME280;42318;48.452;19.526;2023-05-19T20:36:57;98894.66;;;20.28;54.50
56414;BME280;42318;48.452;19.526;2023-05-19T20:44:28;98900.34;;;20.26;54.55
56414;BME280;42318;48.452;19.526;2023-05-19T20:52:03;98904.16;;;20.25;54.53
56414;BME280;42318;48.452;19.526;2023-05-19T20:59:34;98911.47;;;20.25;54.39
56414;BME280;42318;48.452;19.526;2023-05-19T21:07:05;98918.00;;;20.24;54.35
56414;BME280;42318;48.452;19.526;2023-05-19T21:14:36;98906.53;;;20.22;54.34
56414;BME280;42318;48.452;19.526;2023-05-19T21:22:07;98902.75;;;20.23;54.51
56414;BME280;42318;48.452;19.526;2023-05-19T21:29:38;98905.22;;;20.24;54.49
56414;BME280;42318;48.452;19.526;2023-05-19T21:37:09;98916.44;;;20.28;54.27
56414;BME280;42318;48.452;19.526;2023-05-19T21:44:40;98912.47;;;20.35;54.13
56414;BME280;42318;48.452;19.526;2023-05-19T21:52:11;98903.13;;;20.43;53.96
56414;BME280;42318;48.452;19.526;2023-05-19T21:59:43;98894.72;;;20.45;53.65
56414;BME280;42318;48.452;19.526;2023-05-19T22:07:14;98901.31;;;20.49;53.76
56414;BME280;42318;48.452;19.526;2023-05-19T22:14:47;98897.56;;;20.55;53.35
56414;BME280;42318;48.452;19.526;2023-05-19T22:22:18;98888.91;;;20.58;53.49
56414;BME280;42318;48.452;19.526;2023-05-19T22:29:49;98889.75;;;20.58;53.45
56414;BME280;42318;48.452;19.526;2023-05-19T22:37:21;98881.31;;;20.60;53.35
56414;BME280;42318;48.452;19.526;2023-05-19T22:44:53;98884.63;;;20.62;53.45
56414;BME280;42318;48.452;19.526;2023-05-19T22:52:23;98879.16;;;20.62;53.16
56414;BME280;42318;48.452;19.526;2023-05-19T22:59:54;98869.41;;;20.66;53.21
56414;BME280;42318;48.452;19.526;2023-05-19T23:07:25;98864.88;;;20.72;53.18
56414;BME280;42318;48.452;19.526;2023-05-19T23:14:56;98869.00;;;20.74;53.36
56414;BME280;42318;48.452;19.526;2023-05-19T23:22:27;98863.88;;;20.78;53.24
56414;BME280;42318;48.452;19.526;2023-05-19T23:29:58;98854.28;;;20.75;52.97
56414;BME280;42318;48.452;19.526;2023-05-19T23:37:28;98854.38;;;20.80;53.04
56414;BME280;42318;48.452;19.526;2023-05-19T23:44:59;98860.16;;;20.84;52.81
56414;BME280;42318;48.452;19.526;2023-05-19T23:52:30;98848.44;;;20.83;53.13
